createdAt,value
2018-06-21T00:01:31.647Z,20.40
2018-06-21T00:06:26.191Z,20.30
2018-06-21T00:11:20.747Z,20.30
2018-06-21T00:21:09.700Z,20.10
2018-06-21T00:26:04.285Z,19.90
2018-06-21T00:30:58.857Z,19.80
2018-06-21T00:40:47.645Z,19.70
2018-06-21T00:45:42.243Z,19.80
2018-06-21T00:50:36.799Z,19.70
2018-06-21T00:55:48.111Z,19.90
2018-06-21T01:00:42.795Z,19.60
2018-06-21T01:05:37.403Z,19.60
2018-06-21T01:10:31.935Z,19.60
2018-06-21T01:15:26.478Z,19.50
2018-06-21T01:20:21.983Z,19.50
2018-06-21T01:25:17.444Z,19.40
2018-06-21T01:30:12.000Z,19.50
2018-06-21T01:35:06.909Z,19.40
2018-06-21T01:40:01.464Z,19.20
2018-06-21T01:44:55.980Z,19.00
2018-06-21T01:49:50.585Z,18.90
2018-06-21T01:54:45.130Z,18.90
2018-06-21T01:59:39.690Z,19.00
2018-06-21T02:04:34.284Z,19.20
2018-06-21T02:09:28.881Z,19.30
2018-06-21T02:14:23.502Z,19.20
2018-06-21T02:19:18.071Z,19.00
2018-06-21T02:24:12.641Z,18.80
2018-06-21T02:29:07.330Z,18.90
2018-06-21T02:34:01.845Z,18.80
2018-06-21T02:38:56.435Z,18.80
2018-06-21T02:43:50.952Z,18.70
2018-06-21T02:48:45.529Z,18.50
2018-06-21T02:53:40.111Z,18.60
2018-06-21T02:58:34.643Z,18.60
2018-06-21T03:03:29.208Z,18.60
2018-06-21T03:08:23.750Z,18.70
2018-06-21T03:13:18.391Z,18.70
2018-06-21T03:18:12.930Z,18.60
2018-06-21T03:23:07.480Z,18.50
2018-06-21T03:28:02.033Z,18.50
2018-06-21T03:32:59.544Z,18.50
2018-06-21T03:37:54.138Z,18.40
2018-06-21T03:42:48.704Z,18.30
2018-06-21T03:47:43.267Z,18.30
2018-06-21T03:52:37.846Z,18.20
2018-06-21T03:57:32.457Z,18.30
2018-06-21T04:02:28.289Z,18.40
2018-06-21T04:07:22.808Z,18.30
2018-06-21T04:12:17.324Z,18.20
2018-06-21T04:17:11.878Z,18.20
2018-06-21T04:22:06.407Z,18.40
2018-06-21T04:27:00.949Z,18.50
2018-06-21T04:31:55.519Z,18.60
2018-06-21T04:36:50.913Z,18.60
2018-06-21T04:41:45.503Z,18.90
2018-06-21T04:46:40.066Z,19.20
2018-06-21T04:51:34.649Z,19.60
2018-06-21T04:56:29.206Z,20.00
2018-06-21T05:01:23.808Z,20.60
2018-06-21T05:06:18.404Z,21.00
2018-06-21T05:16:07.260Z,21.70
2018-06-21T05:21:01.795Z,22.00
2018-06-21T05:25:56.506Z,22.20
2018-06-21T05:30:51.061Z,22.50
2018-06-21T05:40:50.515Z,22.70
2018-06-21T05:45:45.049Z,22.90
2018-06-21T05:50:39.679Z,23.30
2018-06-21T05:55:34.926Z,23.50
2018-06-21T06:00:29.731Z,23.40
2018-06-21T06:10:18.525Z,23.40
2018-06-21T06:15:13.066Z,23.30
2018-06-21T06:20:07.760Z,23.30
2018-06-21T06:25:02.259Z,23.50
2018-06-21T06:29:56.796Z,23.10
2018-06-21T06:34:51.371Z,22.90
2018-06-21T06:44:40.194Z,22.70
2018-06-21T06:49:34.744Z,23.10
2018-06-21T06:54:29.341Z,23.20
2018-06-21T06:59:23.855Z,23.50
2018-06-21T07:04:18.462Z,23.90
2018-06-21T07:09:13.049Z,24.30
2018-06-21T07:14:07.797Z,24.70
2018-06-21T07:19:02.647Z,24.70
2018-06-21T07:23:57.208Z,25.10
2018-06-21T07:28:51.774Z,25.10
2018-06-21T07:33:46.457Z,25.40
2018-06-21T07:38:41.017Z,25.90
2018-06-21T07:43:35.571Z,25.80
2018-06-21T07:48:30.120Z,25.90
2018-06-21T07:53:24.643Z,26.10
2018-06-21T07:58:19.557Z,26.20
2018-06-21T08:03:14.107Z,26.30
2018-06-21T08:08:08.710Z,26.60
2018-06-21T08:13:03.331Z,26.90
2018-06-21T08:17:57.968Z,27.10
2018-06-21T08:22:52.524Z,27.40
2018-06-21T08:27:47.118Z,27.20
2018-06-21T08:32:43.553Z,26.60
2018-06-21T08:37:38.142Z,26.80
2018-06-21T08:42:32.758Z,27.20
2018-06-21T08:47:27.285Z,27.30
2018-06-21T08:52:21.827Z,27.30
2018-06-21T08:57:16.386Z,27.70
2018-06-21T09:02:11.230Z,28.00
2018-06-21T09:07:05.838Z,28.40
2018-06-21T09:12:00.477Z,28.10
2018-06-21T09:16:55.120Z,28.30
2018-06-21T09:21:49.755Z,28.60
2018-06-21T09:26:44.466Z,28.80
2018-06-21T09:31:39.130Z,29.10
2018-06-21T09:36:40.226Z,29.10
2018-06-21T09:41:39.854Z,28.90
2018-06-21T09:46:39.524Z,28.60
2018-06-21T09:51:34.180Z,27.90
2018-06-21T09:56:28.816Z,27.20
2018-06-21T10:01:23.399Z,27.50
2018-06-21T10:06:18.080Z,27.40
2018-06-21T10:11:12.625Z,28.10
2018-06-21T10:16:07.183Z,28.50
2018-06-21T10:21:01.822Z,29.00
2018-06-21T10:25:56.396Z,29.10
2018-06-21T10:30:51.014Z,29.20
2018-06-21T10:35:45.588Z,28.20
2018-06-21T10:40:40.221Z,27.60
2018-06-21T10:45:34.803Z,27.40
2018-06-21T10:50:29.411Z,28.00
2018-06-21T10:55:24.023Z,28.90
2018-06-21T11:00:18.698Z,29.50
2018-06-21T11:05:13.363Z,29.60
2018-06-21T11:10:08.016Z,30.10
2018-06-21T11:15:02.599Z,30.10
2018-06-21T11:19:57.154Z,30.10
2018-06-21T11:24:52.075Z,30.20
2018-06-21T11:29:46.592Z,29.90
2018-06-21T11:34:41.221Z,29.70
2018-06-21T11:39:35.803Z,29.70
2018-06-21T11:44:30.346Z,30.20
2018-06-21T11:49:24.902Z,31.00
2018-06-21T11:54:19.459Z,30.70
2018-06-21T11:59:14.057Z,30.50
2018-06-21T12:04:08.743Z,30.30
2018-06-21T12:09:03.447Z,30.40
2018-06-21T12:13:57.976Z,30.40
2018-06-21T12:18:52.646Z,30.40
2018-06-21T12:23:47.281Z,30.50
2018-06-21T12:28:41.939Z,30.20
2018-06-21T12:33:36.507Z,29.90
2018-06-21T12:38:31.086Z,29.80
2018-06-21T12:43:25.735Z,29.50
2018-06-21T12:48:20.299Z,29.40
2018-06-21T12:58:09.163Z,29.60
2018-06-21T13:03:03.737Z,29.60
2018-06-21T13:07:58.280Z,29.50
2018-06-21T13:13:10.354Z,29.40
2018-06-21T13:18:04.973Z,29.20
2018-06-21T13:22:59.552Z,29.30
2018-06-21T13:27:54.123Z,29.40
2018-06-21T13:32:48.694Z,29.20
2018-06-21T13:37:43.284Z,29.00
2018-06-21T13:42:37.876Z,29.00
2018-06-21T13:47:32.500Z,29.10
2018-06-21T13:52:27.063Z,29.20
2018-06-21T13:57:21.700Z,29.30
2018-06-21T14:02:16.362Z,29.00
2018-06-21T14:07:10.987Z,29.00
2018-06-21T14:12:05.629Z,28.90
2018-06-21T14:17:00.236Z,28.60
2018-06-21T14:21:54.879Z,28.70
2018-06-21T14:26:49.522Z,28.50
2018-06-21T14:31:44.178Z,28.30
2018-06-21T14:36:38.755Z,27.90
2018-06-21T14:41:33.379Z,27.80
2018-06-21T14:46:28.006Z,27.90
2018-06-21T14:51:22.754Z,27.90
2018-06-21T14:56:17.367Z,27.90
2018-06-21T15:01:12.032Z,27.80
2018-06-21T15:06:06.813Z,27.70
2018-06-21T15:11:01.396Z,27.70
2018-06-21T15:15:56.062Z,27.90
2018-06-21T15:20:50.702Z,28.00
2018-06-21T15:25:45.316Z,27.90
2018-06-21T15:30:39.921Z,27.80
2018-06-21T15:35:34.571Z,28.10
2018-06-21T15:40:29.197Z,27.90
2018-06-21T15:45:23.836Z,27.70
2018-06-21T15:50:18.491Z,27.30
2018-06-21T15:55:13.056Z,27.20
2018-06-21T16:00:07.808Z,27.40
2018-06-21T16:05:02.379Z,27.60
2018-06-21T16:09:56.922Z,27.80
2018-06-21T16:14:51.531Z,27.70
2018-06-21T16:19:46.103Z,27.40
2018-06-21T16:24:40.744Z,27.30
2018-06-21T16:29:35.329Z,27.00
2018-06-21T16:34:29.962Z,26.90
2018-06-21T16:39:24.532Z,26.80
2018-06-21T16:44:19.094Z,26.70
2018-06-21T16:49:13.748Z,26.60
2018-06-21T16:54:08.350Z,26.40
2018-06-21T16:59:03.052Z,26.30
2018-06-21T17:03:57.710Z,26.40
2018-06-21T17:08:52.385Z,26.40
2018-06-21T17:13:47.073Z,26.60
2018-06-21T17:18:42.342Z,26.60
2018-06-21T17:23:36.968Z,26.50
2018-06-21T17:28:31.550Z,26.30
2018-06-21T17:33:26.102Z,26.20
2018-06-21T17:38:20.758Z,26.10
2018-06-21T17:43:15.554Z,25.80
2018-06-21T17:48:10.252Z,25.50
2018-06-21T17:53:04.873Z,25.30
2018-06-21T17:57:59.449Z,25.00
2018-06-21T18:02:54.026Z,24.80
2018-06-21T18:07:48.561Z,24.80
2018-06-21T18:12:43.275Z,24.60
2018-06-21T18:17:37.957Z,24.50
2018-06-21T18:22:32.659Z,24.40
2018-06-21T18:27:27.447Z,24.10
2018-06-21T18:32:22.066Z,23.90
2018-06-21T18:37:16.741Z,23.80
2018-06-21T18:42:11.503Z,23.80
2018-06-21T18:47:07.501Z,23.70
2018-06-21T18:52:02.129Z,23.70
2018-06-21T18:56:56.752Z,23.50
2018-06-21T19:01:51.475Z,23.30
2018-06-21T19:06:51.190Z,23.20
2018-06-21T19:11:50.764Z,23.20
2018-06-21T19:16:45.625Z,22.90
2018-06-21T19:21:40.295Z,22.80
2018-06-21T19:26:35.572Z,22.70
2018-06-21T19:31:30.190Z,22.60
2018-06-21T19:36:24.831Z,22.70
2018-06-21T19:41:19.870Z,22.60
2018-06-21T19:46:14.707Z,22.60
2018-06-21T19:51:09.412Z,22.60
2018-06-21T19:56:04.138Z,22.40
2018-06-21T20:00:58.735Z,22.30
2018-06-21T20:05:53.320Z,22.10
2018-06-21T20:10:51.990Z,22.00
2018-06-21T20:15:51.320Z,22.00
2018-06-21T20:20:45.972Z,22.00
2018-06-21T20:25:40.621Z,21.90
2018-06-21T20:30:35.288Z,21.80
2018-06-21T20:35:29.947Z,21.80
2018-06-21T20:40:24.568Z,21.90
2018-06-21T20:45:19.214Z,21.80
2018-06-21T20:50:13.847Z,21.60
2018-06-21T20:55:08.458Z,21.70
2018-06-21T21:00:03.151Z,21.70
2018-06-21T21:05:15.698Z,21.40
2018-06-21T21:10:13.470Z,21.40
2018-06-21T21:15:09.212Z,21.40
2018-06-21T21:20:04.681Z,21.40
2018-06-21T21:24:59.330Z,21.20
2018-06-21T21:29:54.031Z,21.20
2018-06-21T21:34:48.623Z,21.20
2018-06-21T21:39:43.150Z,20.80
2018-06-21T21:44:37.765Z,20.50
2018-06-21T21:49:32.415Z,20.30
2018-06-21T21:54:27.240Z,20.10
2018-06-21T21:59:21.946Z,20.00
2018-06-21T22:04:16.615Z,19.60
2018-06-21T22:09:11.207Z,19.50
2018-06-21T22:14:06.199Z,19.40
2018-06-21T22:19:00.796Z,19.30
2018-06-21T22:23:55.535Z,19.20
2018-06-21T22:33:52.039Z,19.30
2018-06-21T22:38:46.562Z,19.00
2018-06-21T22:43:41.174Z,18.80
2018-06-21T22:48:36.096Z,18.80
2018-06-21T22:53:30.682Z,19.00
2018-06-21T22:58:25.270Z,18.90
2018-06-21T23:03:19.907Z,18.80
2018-06-21T23:08:14.563Z,18.60
2018-06-21T23:13:09.260Z,18.40
2018-06-21T23:18:03.835Z,18.60
2018-06-21T23:22:58.487Z,18.40
2018-06-21T23:27:53.138Z,18.40
2018-06-21T23:32:47.769Z,18.50
2018-06-21T23:37:42.408Z,18.60
2018-06-21T23:42:37.019Z,18.60
2018-06-21T23:47:31.595Z,18.50
2018-06-21T23:52:26.235Z,18.40
